This is the latest recevied weather packets stored in our database for station/object DL6DJ-15. If no packets are shown the sender has not sent any weather packets the latest 10 day(s).
| Time | Temp. | Humidity | Pressure | Rain* | Wind** | Luminosity | Snow |
|---|---|---|---|---|---|---|---|
| 1777690772 | 3.33° C | 72% | 1025.3 hPa | - | - | - | - |
| 1777690468 | 3.33° C | 72% | 1025.5 hPa | - | - | - | - |
| 1777690168 | 3.33° C | 71% | 1025.6 hPa | - | - | - | - |
| 1777689868 | 3.89° C | 70% | 1025.7 hPa | - | - | - | - |
| 1777689568 | 3.89° C | 70% | 1025.7 hPa | - | - | - | - |
| 1777689267 | 3.89° C | 70% | 1025.6 hPa | - | - | - | - |
| 1777688967 | 3.89° C | 70% | 1025.7 hPa | - | - | - | - |
| 1777688667 | 3.89° C | 70% | 1025.5 hPa | - | - | - | - |
| 1777688366 | 3.89° C | 70% | 1025.6 hPa | - | - | - | - |
| 1777688066 | 3.89° C | 69% | 1025.6 hPa | - | - | - | - |
| 1777687765 | 3.89° C | 70% | 1025.6 hPa | - | - | - | - |
| 1777672146 | 7.78° C | 64% | 1026.6 hPa | - | - | - | - |
| 1777671245 | 7.22° C | 63% | 1026.4 hPa | - | - | - | - |
| 1777670344 | 7.78° C | 61% | 1026.6 hPa | - | - | - | - |
| 1777668241 | 8.89° C | 60% | 1026.6 hPa | - | - | - | - |
| 1777667640 | 9.44° C | 58% | 1026.6 hPa | - | - | - | - |
| 1777667339 | 10° C | 57% | 1026.7 hPa | - | - | - | - |
| 1777665537 | 11.11° C | 54% | 1026.7 hPa | - | - | - | - |
| 1777664636 | 10.56° C | 53% | 1026.6 hPa | - | - | - | - |
| 1777662534 | 11.11° C | 54% | 1026.5 hPa | - | - | - | - |
| 1777661933 | 11.67° C | 54% | 1026.4 hPa | - | - | - | - |
| 1777660731 | 12.22° C | 52% | 1026.4 hPa | - | - | - | - |
| 1777660130 | 12.78° C | 51% | 1026.3 hPa | - | - | - | - |
| 1777659830 | 13.33° C | 50% | 1026.3 hPa | - | - | - | - |
| 1777659529 | 13.89° C | 49% | 1026.2 hPa | - | - | - | - |
* Rain since midnight (hover to see other rain measurements)
** Current wind speed in m/s (hover to see current wind gust speed)